createdAt,value
2023-04-30T00:00:22.345Z,66.41
2023-04-30T00:01:22.306Z,66.03
2023-04-30T00:02:21.383Z,67.02
2023-04-30T00:03:21.426Z,66.82
2023-04-30T00:04:21.396Z,66.20
2023-04-30T00:05:21.287Z,66.30
2023-04-30T00:06:21.320Z,66.33
2023-04-30T00:07:21.228Z,66.10
2023-04-30T00:08:21.243Z,66.13
2023-04-30T00:09:21.234Z,65.52
2023-04-30T00:10:21.208Z,66.33
2023-04-30T00:11:21.233Z,65.83
2023-04-30T00:12:21.187Z,65.42
2023-04-30T00:13:21.173Z,66.23
2023-04-30T00:14:22.211Z,65.31
2023-04-30T00:15:21.164Z,65.52
2023-04-30T00:16:22.168Z,65.83
2023-04-30T00:17:21.165Z,66.30
2023-04-30T00:18:21.142Z,65.68
2023-04-30T00:19:21.128Z,66.39
2023-04-30T00:20:21.123Z,66.60
2023-04-30T00:21:21.102Z,66.50
2023-04-30T00:22:22.063Z,66.39
2023-04-30T00:23:22.073Z,66.50
2023-04-30T00:24:21.064Z,65.65
2023-04-30T00:25:22.066Z,65.78
2023-04-30T00:26:21.055Z,66.27
2023-04-30T00:27:21.033Z,66.27
2023-04-30T00:28:21.024Z,66.39
2023-04-30T00:29:20.998Z,65.17
2023-04-30T00:30:20.983Z,65.37
2023-04-30T00:31:21.016Z,66.09
2023-04-30T00:32:21.133Z,66.39
2023-04-30T00:33:21.966Z,65.86
2023-04-30T00:34:20.949Z,65.07
2023-04-30T00:35:20.950Z,65.37
2023-04-30T00:36:20.926Z,65.51
2023-04-30T00:37:20.932Z,65.13
2023-04-30T00:38:21.923Z,65.61
2023-04-30T00:39:20.900Z,65.31
2023-04-30T00:40:20.904Z,65.61
2023-04-30T00:41:20.873Z,65.41
2023-04-30T00:42:20.874Z,64.59
2023-04-30T00:43:20.872Z,65.07
2023-04-30T00:44:20.847Z,64.46
2023-04-30T00:45:20.825Z,64.25
2023-04-30T00:46:21.910Z,64.46
2023-04-30T00:47:20.864Z,63.75
2023-04-30T00:48:20.791Z,63.75
2023-04-30T00:49:20.780Z,64.56
2023-04-30T00:50:20.800Z,64.31
2023-04-30T00:51:20.777Z,64.39
2023-04-30T00:52:20.770Z,64.28
2023-04-30T00:53:20.788Z,64.28
2023-04-30T00:54:20.715Z,64.11
2023-04-30T00:55:21.712Z,64.31
2023-04-30T00:56:20.720Z,64.31
2023-04-30T00:57:21.682Z,64.31
2023-04-30T00:58:20.700Z,64.62
2023-04-30T00:59:20.734Z,64.01
2023-04-30T01:00:20.667Z,63.98
2023-04-30T01:01:20.727Z,63.47
2023-04-30T01:02:20.740Z,62.65
2023-04-30T01:03:21.738Z,62.85
2023-04-30T01:04:20.637Z,63.06
2023-04-30T01:05:21.641Z,62.88
2023-04-30T01:06:21.656Z,63.37
2023-04-30T01:07:20.601Z,63.57
2023-04-30T01:08:20.607Z,63.67
2023-04-30T01:09:21.569Z,63.57
2023-04-30T01:10:20.550Z,63.67
2023-04-30T01:11:20.541Z,63.90
2023-04-30T01:12:20.521Z,64.01
2023-04-30T01:13:20.513Z,64.42
2023-04-30T01:14:20.526Z,64.83
2023-04-30T01:15:21.488Z,64.93
2023-04-30T01:16:20.605Z,64.96
2023-04-30T01:17:21.492Z,64.83
2023-04-30T01:18:20.614Z,64.72
2023-04-30T01:19:20.459Z,65.13
2023-04-30T01:20:20.448Z,65.03
2023-04-30T01:21:20.456Z,65.13
2023-04-30T01:22:20.423Z,65.03
2023-04-30T01:23:20.476Z,65.03
2023-04-30T01:24:20.409Z,65.23
2023-04-30T01:25:20.393Z,65.47
2023-04-30T01:26:20.370Z,65.37
2023-04-30T01:27:20.391Z,65.67
2023-04-30T01:28:20.355Z,65.98
2023-04-30T01:29:20.396Z,65.70
2023-04-30T01:30:21.325Z,66.62
2023-04-30T01:31:20.320Z,66.42
2023-04-30T01:32:21.311Z,65.60
2023-04-30T01:33:20.314Z,66.52
2023-04-30T01:34:21.475Z,66.11
2023-04-30T01:35:20.294Z,66.55
2023-04-30T01:36:20.285Z,66.25
2023-04-30T01:37:20.252Z,65.56
2023-04-30T01:38:20.276Z,65.77
2023-04-30T01:39:20.225Z,65.43
2023-04-30T01:40:20.208Z,65.43
2023-04-30T01:41:21.235Z,64.99
2023-04-30T01:42:21.267Z,65.09
2023-04-30T01:43:21.185Z,65.09
2023-04-30T01:44:20.176Z,64.68
2023-04-30T01:45:20.163Z,65.09
2023-04-30T01:46:20.144Z,65.33
2023-04-30T01:47:20.273Z,64.92
2023-04-30T01:48:21.152Z,64.92
2023-04-30T01:49:21.151Z,64.92
2023-04-30T01:50:20.121Z,64.99
2023-04-30T01:51:20.091Z,64.40
2023-04-30T01:52:20.087Z,65.36
2023-04-30T01:53:20.103Z,65.36
2023-04-30T01:54:20.115Z,66.69
2023-04-30T01:55:20.068Z,65.36
2023-04-30T01:56:20.061Z,66.31
2023-04-30T01:57:20.058Z,65.66
2023-04-30T01:58:20.028Z,66.72
2023-04-30T01:59:20.035Z,66.31
2023-04-30T02:00:21.028Z,66.61
2023-04-30T02:01:20.010Z,66.51
2023-04-30T02:02:20.145Z,66.51
2023-04-30T02:03:20.060Z,65.66
2023-04-30T02:04:19.962Z,65.56
2023-04-30T02:05:20.958Z,64.64
2023-04-30T02:06:19.986Z,66.41
2023-04-30T02:07:19.934Z,65.80
2023-04-30T02:08:19.936Z,66.54
2023-04-30T02:09:19.912Z,67.46
2023-04-30T02:10:19.917Z,67.16
2023-04-30T02:11:19.917Z,67.16
2023-04-30T02:12:19.936Z,66.85
2023-04-30T02:13:19.859Z,66.13
2023-04-30T02:14:19.861Z,66.85
2023-04-30T02:15:19.839Z,67.23
2023-04-30T02:16:19.876Z,67.36
2023-04-30T02:17:19.826Z,67.43
2023-04-30T02:18:19.853Z,66.61
2023-04-30T02:19:19.803Z,66.72
2023-04-30T02:20:20.834Z,67.02
2023-04-30T02:21:19.774Z,66.41
2023-04-30T02:22:19.768Z,66.82
2023-04-30T02:23:19.744Z,66.61
2023-04-30T02:24:19.742Z,66.61
2023-04-30T02:25:20.727Z,66.41
2023-04-30T02:26:19.778Z,66.61
2023-04-30T02:27:19.704Z,67.16
2023-04-30T02:28:19.701Z,67.46
2023-04-30T02:29:19.680Z,67.67
2023-04-30T02:30:19.662Z,67.16
2023-04-30T02:31:19.728Z,67.87
2023-04-30T02:32:19.643Z,67.57
2023-04-30T02:33:19.619Z,67.57
2023-04-30T02:34:19.622Z,66.92
2023-04-30T02:35:19.641Z,67.13
2023-04-30T02:36:19.602Z,67.23
2023-04-30T02:37:19.615Z,67.46
2023-04-30T02:38:19.584Z,68.21
2023-04-30T02:39:19.583Z,68.41
2023-04-30T02:40:19.564Z,68.73
2023-04-30T02:41:19.540Z,69.37
2023-04-30T02:42:19.556Z,69.57
2023-04-30T02:43:19.546Z,69.37
2023-04-30T02:44:19.507Z,69.57
2023-04-30T02:45:19.500Z,69.57
2023-04-30T02:46:19.577Z,69.57
2023-04-30T02:47:19.471Z,69.17
2023-04-30T02:48:19.487Z,69.17
2023-04-30T02:49:20.438Z,69.37
2023-04-30T02:50:20.443Z,69.27
2023-04-30T02:51:19.424Z,69.37
2023-04-30T02:52:19.432Z,69.68
2023-04-30T02:53:19.431Z,69.54
2023-04-30T02:54:19.420Z,69.37
2023-04-30T02:55:20.374Z,69.17
2023-04-30T02:56:19.407Z,68.83
2023-04-30T02:57:19.384Z,68.62
2023-04-30T02:58:19.392Z,68.93
2023-04-30T02:59:19.348Z,68.73
2023-04-30T03:00:19.332Z,69.17
2023-04-30T03:01:19.340Z,69.17
2023-04-30T03:02:19.395Z,68.86
2023-04-30T03:03:20.461Z,68.52
2023-04-30T03:04:20.305Z,68.86
2023-04-30T03:05:19.276Z,69.20
2023-04-30T03:06:19.286Z,69.61
2023-04-30T03:07:19.252Z,69.17
2023-04-30T03:08:19.243Z,68.83
2023-04-30T03:09:19.277Z,68.45
2023-04-30T03:10:19.309Z,68.76
2023-04-30T03:11:19.229Z,69.30
2023-04-30T03:12:19.197Z,69.30
2023-04-30T03:13:19.200Z,69.37
2023-04-30T03:14:19.209Z,69.47
2023-04-30T03:15:19.176Z,69.37
2023-04-30T03:16:19.181Z,69.27
2023-04-30T03:17:19.157Z,69.27
2023-04-30T03:18:19.129Z,69.17
2023-04-30T03:19:19.177Z,69.20
2023-04-30T03:20:19.221Z,69.30
2023-04-30T03:21:19.112Z,69.68
2023-04-30T03:22:19.096Z,69.37
2023-04-30T03:23:20.084Z,69.40
2023-04-30T03:24:19.082Z,69.10
2023-04-30T03:25:19.093Z,69.37
2023-04-30T03:26:19.061Z,69.40
2023-04-30T03:27:19.063Z,69.20
2023-04-30T03:28:19.041Z,69.20
2023-04-30T03:29:19.053Z,69.10
2023-04-30T03:30:19.067Z,69.30
2023-04-30T03:31:19.020Z,69.51
2023-04-30T03:32:19.984Z,69.81
2023-04-30T03:33:20.031Z,69.84
2023-04-30T03:34:19.975Z,70.05
2023-04-30T03:35:18.958Z,70.22
2023-04-30T03:36:18.986Z,70.02
2023-04-30T03:37:18.942Z,70.36
2023-04-30T03:38:18.933Z,69.92
2023-04-30T03:39:18.908Z,70.12
2023-04-30T03:40:18.912Z,69.81
2023-04-30T03:41:18.890Z,69.57
2023-04-30T03:42:19.912Z,69.47
2023-04-30T03:43:19.382Z,69.37
2023-04-30T03:44:18.881Z,68.96
2023-04-30T03:45:18.896Z,68.96
2023-04-30T03:46:18.926Z,69.17
2023-04-30T03:47:18.822Z,69.06
2023-04-30T03:48:18.817Z,69.06
2023-04-30T03:49:19.807Z,69.37
2023-04-30T03:50:18.840Z,69.27
2023-04-30T03:51:18.780Z,69.17
2023-04-30T03:52:19.760Z,68.99
2023-04-30T03:53:19.790Z,69.17
2023-04-30T03:54:18.755Z,69.06
2023-04-30T03:55:18.735Z,69.10
2023-04-30T03:56:18.755Z,69.20
2023-04-30T03:57:18.725Z,69.10
2023-04-30T03:58:18.758Z,69.20
2023-04-30T03:59:19.706Z,69.27
2023-04-30T04:00:18.680Z,68.96
2023-04-30T04:01:18.727Z,69.30
2023-04-30T04:02:18.801Z,69.30
2023-04-30T04:03:18.718Z,69.51
2023-04-30T04:04:18.724Z,69.20
2023-04-30T04:05:18.638Z,69.30
2023-04-30T04:06:18.656Z,69.40
2023-04-30T04:07:18.628Z,68.82
2023-04-30T04:08:18.597Z,69.64
2023-04-30T04:09:18.639Z,69.84
2023-04-30T04:10:19.584Z,69.95
2023-04-30T04:11:18.596Z,69.81
2023-04-30T04:12:18.563Z,69.74
2023-04-30T04:13:19.544Z,69.51
2023-04-30T04:14:18.538Z,69.54
2023-04-30T04:15:18.556Z,69.64
2023-04-30T04:16:18.565Z,69.74
2023-04-30T04:17:18.543Z,70.05
2023-04-30T04:18:18.532Z,69.84
2023-04-30T04:19:18.510Z,69.54
2023-04-30T04:20:18.500Z,69.78
2023-04-30T04:21:18.473Z,70.15
2023-04-30T04:22:19.464Z,70.05
2023-04-30T04:23:18.429Z,69.74
2023-04-30T04:24:18.433Z,69.71
2023-04-30T04:25:19.427Z,69.51
2023-04-30T04:26:18.403Z,69.10
2023-04-30T04:27:18.421Z,69.40
2023-04-30T04:28:18.386Z,68.96
2023-04-30T04:29:18.384Z,68.96
2023-04-30T04:30:18.374Z,69.20
2023-04-30T04:31:31.048Z,68.24
2023-04-30T04:32:18.350Z,68.76
2023-04-30T04:33:18.345Z,69.06
2023-04-30T04:34:18.358Z,69.06
2023-04-30T04:35:18.317Z,68.96
2023-04-30T04:36:19.303Z,68.79
2023-04-30T04:37:19.295Z,69.10
2023-04-30T04:38:18.289Z,68.99
2023-04-30T04:39:18.252Z,69.20
2023-04-30T04:40:18.285Z,69.20
2023-04-30T04:41:19.239Z,69.13
2023-04-30T04:42:18.225Z,69.95
2023-04-30T04:43:18.233Z,69.74
2023-04-30T04:44:18.227Z,70.26
2023-04-30T04:45:18.206Z,69.95
2023-04-30T04:46:18.245Z,70.15
2023-04-30T04:47:18.183Z,70.26
2023-04-30T04:48:18.185Z,70.36
2023-04-30T04:49:18.155Z,70.36
2023-04-30T04:50:18.358Z,70.32
2023-04-30T04:51:18.149Z,69.92
2023-04-30T04:52:18.111Z,69.27
2023-04-30T04:53:18.119Z,69.20
2023-04-30T04:54:18.110Z,69.92
2023-04-30T04:55:18.103Z,70.36
2023-04-30T04:56:18.093Z,70.05
2023-04-30T04:57:18.106Z,69.71
2023-04-30T04:58:18.065Z,69.92
2023-04-30T04:59:18.111Z,69.81
2023-04-30T05:00:18.041Z,69.61
2023-04-30T05:01:18.051Z,69.61
2023-04-30T05:02:18.044Z,69.43
2023-04-30T05:03:19.037Z,70.12
2023-04-30T05:04:17.979Z,69.71
2023-04-30T05:05:19.013Z,69.68
2023-04-30T05:06:18.023Z,69.37
2023-04-30T05:07:17.967Z,69.57
2023-04-30T05:08:17.951Z,68.96
2023-04-30T05:09:17.932Z,68.45
2023-04-30T05:10:18.972Z,69.03
2023-04-30T05:11:17.949Z,68.86
2023-04-30T05:12:17.907Z,68.96
2023-04-30T05:13:17.892Z,68.52
2023-04-30T05:14:17.921Z,68.41
2023-04-30T05:15:17.888Z,68.32
2023-04-30T05:16:17.935Z,68.55
2023-04-30T05:17:17.857Z,68.45
2023-04-30T05:18:17.840Z,69.10
2023-04-30T05:19:17.854Z,69.20
2023-04-30T05:20:17.850Z,69.27
2023-04-30T05:21:17.857Z,69.03
2023-04-30T05:22:17.802Z,68.28
2023-04-30T05:23:17.870Z,68.05
2023-04-30T05:24:17.759Z,67.49
2023-04-30T05:25:17.776Z,67.16
2023-04-30T05:26:17.760Z,67.49
2023-04-30T05:27:17.778Z,67.46
2023-04-30T05:28:17.741Z,67.05
2023-04-30T05:29:17.760Z,67.36
2023-04-30T05:30:17.716Z,66.92
2023-04-30T05:31:20.761Z,66.31
2023-04-30T05:32:18.696Z,65.66
2023-04-30T05:33:17.691Z,65.90
2023-04-30T05:34:17.689Z,66.44
2023-04-30T05:35:17.657Z,66.00
2023-04-30T05:36:17.640Z,65.39
2023-04-30T05:37:17.664Z,67.16
2023-04-30T05:38:17.685Z,66.54
2023-04-30T05:39:17.627Z,66.13
2023-04-30T05:40:18.617Z,66.44
2023-04-30T05:41:18.595Z,66.03
2023-04-30T05:42:17.593Z,66.47
2023-04-30T05:43:17.586Z,66.64
2023-04-30T05:44:17.544Z,67.13
2023-04-30T05:45:17.639Z,66.37
2023-04-30T05:46:17.587Z,66.75
2023-04-30T05:47:17.532Z,66.75
2023-04-30T05:48:17.575Z,66.72
2023-04-30T05:49:17.514Z,65.77
2023-04-30T05:50:18.490Z,65.49
2023-04-30T05:51:17.498Z,65.56
2023-04-30T05:52:17.495Z,65.69
2023-04-30T05:53:17.491Z,65.80
2023-04-30T05:54:18.455Z,65.49
2023-04-30T05:55:17.441Z,64.74
2023-04-30T05:56:17.495Z,64.64
2023-04-30T05:57:17.415Z,64.95
2023-04-30T05:58:18.396Z,65.36
2023-04-30T05:59:17.429Z,65.02
2023-04-30T06:00:17.393Z,64.54
2023-04-30T06:01:17.388Z,65.08
2023-04-30T06:02:17.426Z,65.49
2023-04-30T06:03:17.393Z,64.74
2023-04-30T06:04:18.339Z,64.89
2023-04-30T06:05:17.325Z,64.48
2023-04-30T06:06:17.361Z,64.55
2023-04-30T06:07:17.312Z,64.65
2023-04-30T06:08:17.313Z,64.34
2023-04-30T06:09:17.333Z,64.45
2023-04-30T06:10:17.312Z,63.81
2023-04-30T06:11:17.255Z,62.92
2023-04-30T06:12:17.265Z,64.14
2023-04-30T06:13:17.275Z,63.73
2023-04-30T06:14:17.246Z,63.83
2023-04-30T06:15:18.218Z,63.09
2023-04-30T06:16:17.290Z,62.99
2023-04-30T06:17:17.198Z,62.99
2023-04-30T06:18:18.367Z,62.99
2023-04-30T06:19:17.185Z,63.04
2023-04-30T06:20:17.170Z,64.61
2023-04-30T06:21:17.149Z,65.15
2023-04-30T06:22:17.149Z,65.05
2023-04-30T06:23:17.141Z,65.22
2023-04-30T06:24:18.155Z,64.68
2023-04-30T06:25:17.110Z,64.58
2023-04-30T06:26:17.114Z,63.66
2023-04-30T06:27:17.089Z,64.27
2023-04-30T06:28:17.060Z,64.75
2023-04-30T06:29:17.093Z,64.31
2023-04-30T06:30:17.069Z,62.78
2023-04-30T06:31:17.074Z,63.70
2023-04-30T06:32:17.015Z,63.09
2023-04-30T06:33:18.033Z,62.68
2023-04-30T06:34:16.998Z,62.88
2023-04-30T06:35:18.023Z,62.78
2023-04-30T06:36:16.986Z,63.09
2023-04-30T06:37:16.970Z,62.76
2023-04-30T06:38:17.022Z,61.30
2023-04-30T06:39:16.960Z,62.27
2023-04-30T06:40:17.922Z,61.94
2023-04-30T06:41:18.056Z,61.83
2023-04-30T06:42:17.040Z,61.15
2023-04-30T06:43:16.912Z,61.97
2023-04-30T06:44:16.906Z,62.40
2023-04-30T06:45:16.899Z,63.15
2023-04-30T06:46:16.913Z,63.02
2023-04-30T06:47:16.966Z,63.09
2023-04-30T06:48:16.855Z,63.06
2023-04-30T06:49:17.839Z,61.80
2023-04-30T06:50:16.836Z,61.43
2023-04-30T06:51:16.827Z,61.91
2023-04-30T06:52:17.842Z,60.78
2023-04-30T06:53:16.806Z,61.50
2023-04-30T06:54:16.824Z,60.76
2023-04-30T06:55:17.774Z,60.45
2023-04-30T06:56:16.780Z,60.32
2023-04-30T06:57:16.759Z,59.41
2023-04-30T06:58:16.790Z,59.64
2023-04-30T06:59:16.724Z,60.02
2023-04-30T07:00:17.738Z,59.91
2023-04-30T07:01:16.732Z,60.30
2023-04-30T07:02:16.730Z,58.89
2023-04-30T07:03:16.782Z,58.87
2023-04-30T07:04:16.674Z,58.97
2023-04-30T07:05:17.694Z,58.97
2023-04-30T07:06:17.690Z,59.78
2023-04-30T07:07:16.654Z,59.68
2023-04-30T07:08:16.632Z,59.17
2023-04-30T07:09:16.648Z,59.00
2023-04-30T07:10:17.288Z,59.20
2023-04-30T07:11:17.598Z,59.51
2023-04-30T07:12:16.604Z,59.81
2023-04-30T07:13:16.613Z,58.92
2023-04-30T07:14:16.668Z,59.84
2023-04-30T07:15:16.568Z,58.72
2023-04-30T07:16:16.650Z,58.44
2023-04-30T07:17:17.535Z,58.95
2023-04-30T07:18:16.527Z,59.26
2023-04-30T07:19:16.528Z,59.64
2023-04-30T07:20:17.538Z,59.26
2023-04-30T07:21:16.485Z,59.33
2023-04-30T07:22:16.481Z,59.64
2023-04-30T07:23:16.495Z,58.89
2023-04-30T07:24:16.474Z,58.80
2023-04-30T07:25:16.501Z,58.56
2023-04-30T07:26:16.468Z,58.64
2023-04-30T07:27:16.419Z,58.13
2023-04-30T07:28:16.418Z,57.52
2023-04-30T07:29:16.399Z,57.59
2023-04-30T07:30:16.417Z,57.29
2023-04-30T07:31:16.395Z,57.11
2023-04-30T07:32:16.413Z,58.26
2023-04-30T07:33:16.449Z,57.72
2023-04-30T07:34:16.345Z,58.03
2023-04-30T07:35:16.343Z,58.15
2023-04-30T07:36:16.308Z,58.49
2023-04-30T07:37:17.331Z,57.98
2023-04-30T07:38:17.312Z,58.15
2023-04-30T07:39:16.301Z,58.39
2023-04-30T07:40:25.364Z,57.95
2023-04-30T07:41:17.269Z,58.87
2023-04-30T07:42:17.264Z,58.69
2023-04-30T07:43:16.283Z,59.71
2023-04-30T07:44:16.258Z,58.05
2023-04-30T07:45:16.227Z,59.00
2023-04-30T07:46:17.274Z,59.41
2023-04-30T07:47:16.210Z,58.56
2023-04-30T07:48:16.190Z,59.03
2023-04-30T07:49:16.206Z,59.51
2023-04-30T07:50:16.172Z,60.19
2023-04-30T07:51:16.171Z,58.84
2023-04-30T07:52:16.174Z,58.94
2023-04-30T07:53:16.141Z,58.20
2023-04-30T07:54:17.122Z,57.79
2023-04-30T07:55:16.127Z,57.18
2023-04-30T07:56:16.155Z,56.68
2023-04-30T07:57:16.103Z,57.06
2023-04-30T07:58:16.078Z,56.75
2023-04-30T07:59:17.055Z,56.95
2023-04-30T08:00:17.062Z,58.17
2023-04-30T08:01:16.050Z,56.82
2023-04-30T08:02:17.102Z,56.27
2023-04-30T08:03:16.106Z,56.95
2023-04-30T08:04:16.049Z,56.55
2023-04-30T08:05:15.993Z,56.55
2023-04-30T08:06:16.048Z,55.96
2023-04-30T08:07:17.011Z,54.92
2023-04-30T08:08:16.000Z,55.02
2023-04-30T08:09:15.977Z,55.30
2023-04-30T08:10:15.968Z,55.20
2023-04-30T08:11:15.961Z,54.39
2023-04-30T08:12:15.940Z,54.97
2023-04-30T08:13:15.925Z,55.88
2023-04-30T08:14:15.905Z,55.10
2023-04-30T08:15:16.918Z,54.82
2023-04-30T08:16:15.950Z,53.37
2023-04-30T08:17:15.880Z,53.09
2023-04-30T08:18:16.959Z,53.29
2023-04-30T08:19:15.862Z,52.89
2023-04-30T08:20:15.858Z,53.17
2023-04-30T08:21:15.891Z,53.47
2023-04-30T08:22:15.825Z,53.06
2023-04-30T08:23:15.815Z,52.76
2023-04-30T08:24:15.807Z,52.96
2023-04-30T08:25:15.800Z,52.45
2023-04-30T08:26:15.797Z,52.53
2023-04-30T08:27:15.804Z,52.94
2023-04-30T08:28:15.756Z,52.33
2023-04-30T08:29:15.776Z,52.37
2023-04-30T08:30:15.744Z,53.29
2023-04-30T08:31:16.780Z,52.78
2023-04-30T08:32:15.772Z,52.81
2023-04-30T08:33:15.834Z,53.55
2023-04-30T08:34:15.723Z,53.24
2023-04-30T08:35:15.682Z,50.80
2023-04-30T08:36:15.674Z,50.98
2023-04-30T08:37:15.674Z,52.28
2023-04-30T08:38:15.666Z,52.48
2023-04-30T08:39:16.654Z,52.91
2023-04-30T08:40:15.612Z,53.27
2023-04-30T08:41:15.622Z,52.76
2023-04-30T08:42:15.611Z,52.15
2023-04-30T08:43:15.603Z,50.90
2023-04-30T08:44:15.596Z,50.90
2023-04-30T08:45:15.575Z,50.42
2023-04-30T08:46:15.570Z,50.73
2023-04-30T08:47:15.667Z,50.81
2023-04-30T08:48:15.548Z,49.05
2023-04-30T08:49:15.546Z,47.55
2023-04-30T08:50:15.538Z,48.47
2023-04-30T08:51:15.507Z,49.87
2023-04-30T08:52:15.492Z,49.56
2023-04-30T08:53:15.476Z,48.24
2023-04-30T08:54:15.475Z,49.36
2023-04-30T08:55:16.501Z,47.45
2023-04-30T08:56:15.457Z,47.43
2023-04-30T08:57:15.424Z,47.61
2023-04-30T08:58:15.433Z,46.92
2023-04-30T08:59:15.402Z,47.75
2023-04-30T09:00:15.413Z,47.96
2023-04-30T09:01:16.544Z,48.47
2023-04-30T09:02:16.530Z,49.18
2023-04-30T09:03:15.431Z,49.87
2023-04-30T09:04:15.447Z,49.44
2023-04-30T09:05:16.229Z,47.63
2023-04-30T09:06:15.422Z,48.24
2023-04-30T09:07:15.355Z,47.61
2023-04-30T09:08:15.323Z,46.70
2023-04-30T09:09:15.301Z,46.59
2023-04-30T09:10:15.292Z,45.86
2023-04-30T09:11:15.316Z,45.46
2023-04-30T09:12:17.848Z,44.77
2023-04-30T09:13:15.295Z,46.33
2023-04-30T09:14:16.249Z,46.72
2023-04-30T09:15:16.240Z,47.33
2023-04-30T09:16:16.266Z,46.03
2023-04-30T09:17:15.226Z,47.43
2023-04-30T09:18:16.381Z,47.63
2023-04-30T09:19:15.194Z,47.13
2023-04-30T09:20:15.197Z,47.49
2023-04-30T09:21:15.160Z,42.51
2023-04-30T09:22:15.217Z,42.02
2023-04-30T09:23:15.164Z,44.77
2023-04-30T09:24:16.595Z,46.59
2023-04-30T09:25:15.115Z,48.52
2023-04-30T09:26:15.120Z,49.92
2023-04-30T09:27:15.120Z,47.69
2023-04-30T09:28:15.096Z,48.18
2023-04-30T09:29:15.092Z,47.16
2023-04-30T09:30:16.079Z,46.88
2023-04-30T09:31:15.388Z,48.60
2023-04-30T09:32:15.049Z,48.40
2023-04-30T09:33:15.066Z,48.19
2023-04-30T09:34:15.080Z,48.07
2023-04-30T09:35:15.088Z,48.07
2023-04-30T09:36:15.021Z,48.27
2023-04-30T09:37:16.014Z,46.86
2023-04-30T09:38:15.006Z,47.06
2023-04-30T09:39:16.076Z,46.95
2023-04-30T09:40:14.983Z,47.46
2023-04-30T09:41:15.008Z,47.75
2023-04-30T09:42:14.945Z,46.63
2023-04-30T09:43:14.917Z,46.53
2023-04-30T09:44:15.922Z,46.33
2023-04-30T09:45:14.924Z,46.51
2023-04-30T09:46:14.949Z,45.07
2023-04-30T09:47:14.899Z,42.86
2023-04-30T09:48:17.711Z,42.46
2023-04-30T09:49:14.881Z,43.77
2023-04-30T09:50:14.850Z,44.66
2023-04-30T09:51:14.869Z,45.17
2023-04-30T09:52:14.852Z,45.67
2023-04-30T09:53:14.835Z,44.87
2023-04-30T09:54:14.883Z,45.98
2023-04-30T09:55:14.807Z,46.06
2023-04-30T09:56:15.803Z,46.46
2023-04-30T09:57:14.789Z,45.17
2023-04-30T09:58:14.777Z,46.18
2023-04-30T09:59:14.772Z,45.07
2023-04-30T10:00:14.773Z,43.43
2023-04-30T10:01:14.777Z,42.94
2023-04-30T10:02:14.742Z,43.75
2023-04-30T10:03:14.740Z,44.44
2023-04-30T10:04:14.724Z,43.63
2023-04-30T10:05:14.727Z,44.03
2023-04-30T10:06:14.756Z,43.43
2023-04-30T10:07:16.311Z,43.83
2023-04-30T10:08:16.205Z,42.61
2023-04-30T10:09:14.681Z,43.32
2023-04-30T10:10:14.671Z,43.93
2023-04-30T10:11:14.622Z,44.44
2023-04-30T10:12:14.626Z,44.64
2023-04-30T10:13:14.636Z,45.07
2023-04-30T10:14:14.585Z,45.67
2023-04-30T10:15:15.613Z,44.76
2023-04-30T10:16:14.584Z,44.27
2023-04-30T10:17:14.575Z,44.46
2023-04-30T10:18:14.570Z,43.55
2023-04-30T10:19:14.561Z,44.13
2023-04-30T10:20:15.537Z,43.41
2023-04-30T10:21:14.516Z,42.29
2023-04-30T10:22:14.516Z,43.29
2023-04-30T10:23:14.493Z,43.06
2023-04-30T10:24:14.540Z,43.37
2023-04-30T10:25:14.532Z,42.37
2023-04-30T10:26:14.474Z,40.39
2023-04-30T10:27:14.436Z,42.61
2023-04-30T10:28:14.424Z,41.83
2023-04-30T10:29:14.432Z,42.31
2023-04-30T10:30:15.463Z,42.01
2023-04-30T10:31:14.405Z,42.60
2023-04-30T10:32:15.434Z,43.52
2023-04-30T10:33:16.678Z,43.52
2023-04-30T10:34:14.404Z,44.03
2023-04-30T10:35:14.396Z,43.14
2023-04-30T10:36:14.359Z,43.26
2023-04-30T10:37:14.362Z,43.57
2023-04-30T10:38:14.336Z,42.15
2023-04-30T10:39:14.324Z,43.47
2023-04-30T10:40:14.328Z,42.86
2023-04-30T10:41:14.295Z,43.16
2023-04-30T10:42:14.318Z,43.55
2023-04-30T10:43:14.265Z,43.44
2023-04-30T10:44:14.268Z,42.74
2023-04-30T10:45:14.246Z,40.41
2023-04-30T10:46:14.353Z,44.56
2023-04-30T10:47:15.245Z,42.23
2023-04-30T10:48:14.243Z,44.26
2023-04-30T10:49:14.208Z,43.14
2023-04-30T10:50:14.351Z,43.95
2023-04-30T10:51:14.214Z,43.35
2023-04-30T10:52:14.189Z,44.15
2023-04-30T10:53:14.156Z,44.96
2023-04-30T10:54:14.157Z,43.83
2023-04-30T10:55:15.143Z,44.12
2023-04-30T10:56:14.161Z,44.24
2023-04-30T10:57:14.178Z,43.73
2023-04-30T10:58:14.129Z,43.41
2023-04-30T10:59:14.130Z,41.60
2023-04-30T11:00:14.135Z,41.60
2023-04-30T11:01:14.085Z,42.01
2023-04-30T11:02:14.072Z,41.56
2023-04-30T11:03:14.083Z,41.06
2023-04-30T11:04:14.076Z,40.13
2023-04-30T11:05:14.146Z,40.13
2023-04-30T11:06:15.073Z,39.83
2023-04-30T11:07:14.017Z,40.53
2023-04-30T11:08:14.027Z,41.02
2023-04-30T11:09:14.004Z,40.44
2023-04-30T11:10:14.974Z,41.44
2023-04-30T11:11:13.996Z,41.24
2023-04-30T11:12:13.947Z,42.78
2023-04-30T11:13:13.948Z,43.29
2023-04-30T11:14:13.964Z,43.49
2023-04-30T11:15:13.943Z,42.40
2023-04-30T11:16:13.950Z,42.09
2023-04-30T11:17:13.906Z,43.67
2023-04-30T11:18:13.894Z,42.76
2023-04-30T11:19:13.931Z,42.74
2023-04-30T11:20:13.878Z,42.23
2023-04-30T11:21:13.907Z,42.43
2023-04-30T11:22:13.853Z,43.34
2023-04-30T11:23:17.413Z,42.64
2023-04-30T11:24:14.815Z,43.24
2023-04-30T11:25:13.800Z,42.17
2023-04-30T11:26:14.813Z,43.51
2023-04-30T11:27:13.821Z,42.27
2023-04-30T11:28:13.822Z,42.78
2023-04-30T11:29:13.839Z,41.56
2023-04-30T11:30:13.783Z,43.16
2023-04-30T11:31:15.346Z,42.07
2023-04-30T11:32:13.753Z,43.46
2023-04-30T11:33:13.716Z,41.64
2023-04-30T11:34:13.761Z,41.49
2023-04-30T11:35:14.704Z,41.38
2023-04-30T11:36:13.692Z,41.46
2023-04-30T11:37:13.698Z,41.56
2023-04-30T11:38:13.698Z,42.07
2023-04-30T11:39:13.722Z,42.15
2023-04-30T11:40:13.728Z,42.05
2023-04-30T11:41:13.634Z,41.35
2023-04-30T11:42:13.643Z,40.77
2023-04-30T11:43:13.662Z,41.58
2023-04-30T11:44:13.621Z,39.95
2023-04-30T11:45:13.578Z,39.86
2023-04-30T11:46:13.701Z,38.85
2023-04-30T11:47:13.566Z,40.05
2023-04-30T11:48:14.669Z,39.44
2023-04-30T11:49:13.582Z,39.76
2023-04-30T11:50:13.528Z,40.69
2023-04-30T11:51:13.537Z,41.22
2023-04-30T11:52:14.532Z,41.91
2023-04-30T11:53:13.506Z,42.52
2023-04-30T11:54:13.528Z,41.50
2023-04-30T11:55:14.496Z,42.03
2023-04-30T11:56:13.484Z,43.16
2023-04-30T11:57:13.485Z,43.75
2023-04-30T11:58:13.447Z,42.43
2023-04-30T11:59:13.438Z,41.63
2023-04-30T12:00:13.450Z,41.60
2023-04-30T12:01:13.402Z,40.27
2023-04-30T12:02:13.724Z,39.88
2023-04-30T12:03:13.508Z,39.88
2023-04-30T12:04:13.561Z,40.29
2023-04-30T12:05:13.365Z,40.09
2023-04-30T12:06:14.415Z,39.68
2023-04-30T12:07:13.371Z,41.30
2023-04-30T12:08:13.383Z,42.31
2023-04-30T12:09:13.364Z,42.61
2023-04-30T12:10:13.326Z,42.72
2023-04-30T12:11:14.340Z,44.09
2023-04-30T12:12:13.311Z,43.79
2023-04-30T12:13:13.308Z,43.18
2023-04-30T12:14:14.284Z,44.70
2023-04-30T12:15:13.284Z,44.52
2023-04-30T12:16:14.303Z,44.80
2023-04-30T12:17:14.266Z,45.89
2023-04-30T12:18:13.344Z,44.35
2023-04-30T12:19:13.281Z,41.93
2023-04-30T12:20:14.212Z,41.63
2023-04-30T12:21:13.191Z,42.43
2023-04-30T12:22:13.180Z,42.27
2023-04-30T12:23:13.186Z,42.78
2023-04-30T12:24:13.197Z,42.88
2023-04-30T12:25:13.170Z,42.17
2023-04-30T12:26:13.225Z,41.26
2023-04-30T12:27:14.142Z,41.38
2023-04-30T12:28:13.114Z,41.46
2023-04-30T12:29:15.194Z,42.05
2023-04-30T12:30:14.080Z,41.55
2023-04-30T12:31:13.085Z,40.94
2023-04-30T12:32:13.186Z,39.70
2023-04-30T12:33:13.132Z,38.61
2023-04-30T12:34:13.112Z,39.61
2023-04-30T12:35:13.075Z,39.70
2023-04-30T12:36:13.014Z,40.11
2023-04-30T12:37:13.025Z,40.31
2023-04-30T12:38:12.994Z,39.91
2023-04-30T12:39:14.013Z,39.70
2023-04-30T12:40:12.989Z,41.14
2023-04-30T12:41:12.986Z,40.73
2023-04-30T12:42:12.949Z,40.03
2023-04-30T12:43:12.964Z,39.93
2023-04-30T12:44:12.998Z,39.62
2023-04-30T12:45:12.930Z,41.35
2023-04-30T12:46:13.013Z,40.23
2023-04-30T12:47:12.936Z,39.24
2023-04-30T12:48:12.902Z,41.26
2023-04-30T12:49:12.891Z,40.03
2023-04-30T12:50:12.926Z,39.02
2023-04-30T12:51:12.863Z,39.12
2023-04-30T12:52:13.846Z,38.19